createdAt,value
2022-08-26T00:00:12.355Z,9.00
2022-08-26T00:02:42.908Z,7.77
2022-08-26T00:05:10.783Z,7.60
2022-08-26T00:07:38.847Z,7.47
2022-08-26T00:10:08.324Z,8.37
2022-08-26T00:12:37.787Z,7.47
2022-08-26T00:15:11.098Z,7.13
2022-08-26T00:17:40.380Z,7.33
2022-08-26T00:20:10.729Z,7.73
2022-08-26T00:22:38.670Z,6.60
2022-08-26T00:25:08.034Z,6.77
2022-08-26T00:27:36.831Z,9.20
2022-08-26T00:30:11.505Z,8.37
2022-08-26T00:32:39.218Z,8.37
2022-08-26T00:35:09.042Z,6.57
2022-08-26T00:37:36.833Z,6.83
2022-08-26T00:40:06.018Z,7.93
2022-08-26T00:42:33.813Z,7.40
2022-08-26T00:45:02.351Z,7.70
2022-08-26T00:47:44.860Z,6.33
2022-08-26T00:50:26.961Z,8.00
2022-08-26T00:52:56.465Z,8.53
2022-08-26T00:55:37.765Z,10.53
2022-08-26T00:58:07.591Z,8.40
2022-08-26T01:00:35.944Z,8.17
2022-08-26T01:03:05.566Z,8.87
2022-08-26T01:05:40.151Z,8.40
2022-08-26T01:08:07.846Z,8.23
2022-08-26T01:10:36.435Z,7.33
2022-08-26T01:13:09.941Z,7.77
2022-08-26T01:15:44.208Z,7.67
2022-08-26T01:18:14.593Z,7.00
2022-08-26T01:20:57.787Z,8.20
2022-08-26T01:23:28.495Z,7.57
2022-08-26T01:26:00.588Z,8.60
2022-08-26T01:28:32.470Z,7.90
2022-08-26T01:31:02.436Z,7.33
2022-08-26T01:33:42.021Z,9.17
2022-08-26T01:36:10.745Z,9.33
2022-08-26T01:38:39.948Z,7.10
2022-08-26T01:41:16.130Z,8.07
2022-08-26T01:43:52.002Z,7.37
2022-08-26T01:46:21.241Z,6.63
2022-08-26T01:48:52.392Z,6.43
2022-08-26T01:51:24.828Z,7.93
2022-08-26T01:53:54.118Z,7.93
2022-08-26T01:56:23.287Z,7.93
2022-08-26T01:58:53.367Z,7.93
2022-08-26T02:01:22.581Z,9.23
2022-08-26T02:04:04.205Z,9.07
2022-08-26T02:06:33.702Z,10.57
2022-08-26T02:09:06.015Z,11.33
2022-08-26T02:11:36.853Z,11.07
2022-08-26T02:14:09.885Z,9.70
2022-08-26T02:16:42.451Z,11.27
2022-08-26T02:19:16.860Z,10.13
2022-08-26T02:21:46.240Z,8.90
2022-08-26T02:24:22.995Z,6.67
2022-08-26T02:26:52.702Z,8.40
2022-08-26T02:29:26.023Z,8.43
2022-08-26T02:31:55.671Z,8.43
2022-08-26T02:34:31.091Z,7.53
2022-08-26T02:37:00.602Z,8.20
2022-08-26T02:39:31.831Z,7.43
2022-08-26T02:42:00.129Z,9.70
2022-08-26T02:44:28.400Z,9.90
2022-08-26T02:46:56.709Z,9.30
2022-08-26T02:49:25.803Z,8.50
2022-08-26T02:51:53.959Z,7.97
2022-08-26T02:54:22.814Z,9.27
2022-08-26T02:56:52.799Z,9.03
2022-08-26T02:59:20.519Z,8.43
2022-08-26T03:01:56.144Z,9.63
2022-08-26T03:04:25.678Z,9.73
2022-08-26T03:06:55.460Z,9.27
2022-08-26T03:09:23.679Z,9.97
2022-08-26T03:11:55.285Z,11.03
2022-08-26T03:14:23.901Z,10.43
2022-08-26T03:16:53.960Z,9.63
2022-08-26T03:19:23.051Z,8.73
2022-08-26T03:21:51.238Z,8.80
2022-08-26T03:24:20.937Z,8.53
2022-08-26T03:26:52.469Z,7.53
2022-08-26T03:29:39.943Z,8.27
2022-08-26T03:32:08.248Z,9.40
2022-08-26T03:34:36.055Z,9.40
2022-08-26T03:37:04.040Z,8.40
2022-08-26T03:39:31.869Z,8.37
2022-08-26T03:42:00.694Z,8.20
2022-08-26T03:44:29.870Z,8.43
2022-08-26T03:46:58.248Z,8.23
2022-08-26T03:49:26.453Z,7.20
2022-08-26T03:51:57.386Z,6.87
2022-08-26T03:54:25.022Z,6.17
2022-08-26T03:56:54.292Z,6.37
2022-08-26T03:59:21.939Z,8.37
2022-08-26T04:01:52.318Z,7.30
2022-08-26T04:04:22.821Z,5.63
2022-08-26T04:06:58.207Z,8.27
2022-08-26T04:09:26.513Z,5.40
2022-08-26T04:11:55.342Z,6.87
2022-08-26T04:14:26.982Z,6.33
2022-08-26T04:16:57.128Z,6.37
2022-08-26T04:19:26.120Z,7.00
2022-08-26T04:21:55.163Z,7.63
2022-08-26T04:24:25.147Z,8.20
2022-08-26T04:26:53.805Z,8.07
2022-08-26T04:29:24.544Z,6.73
2022-08-26T04:31:55.516Z,6.60
2022-08-26T04:34:27.253Z,6.63
2022-08-26T04:36:58.171Z,7.20
2022-08-26T04:39:27.763Z,7.00
2022-08-26T04:41:57.639Z,7.13
2022-08-26T04:44:27.392Z,5.90
2022-08-26T04:46:56.553Z,5.73
2022-08-26T04:49:26.135Z,5.60
2022-08-26T04:51:55.944Z,5.13
2022-08-26T04:54:23.757Z,5.70
2022-08-26T04:56:53.075Z,6.10
2022-08-26T04:59:20.759Z,5.60
2022-08-26T05:01:51.590Z,7.73
2022-08-26T05:04:21.375Z,5.47
2022-08-26T05:06:52.134Z,5.40
2022-08-26T05:09:21.073Z,4.97
2022-08-26T05:11:52.069Z,5.10
2022-08-26T05:14:20.752Z,5.10
2022-08-26T05:16:49.357Z,4.67
2022-08-26T05:19:18.934Z,5.30
2022-08-26T05:21:48.382Z,6.70
2022-08-26T05:24:18.329Z,5.60
2022-08-26T05:26:48.120Z,6.10
2022-08-26T05:29:16.071Z,5.83
2022-08-26T05:31:45.205Z,5.77
2022-08-26T05:34:12.875Z,6.90
2022-08-26T05:36:41.379Z,5.10
2022-08-26T05:39:10.658Z,5.20
2022-08-26T05:41:43.019Z,4.40
2022-08-26T05:44:18.910Z,5.90
2022-08-26T05:46:47.153Z,5.07
2022-08-26T05:49:16.500Z,6.87
2022-08-26T05:51:47.649Z,5.90
2022-08-26T05:54:22.111Z,6.40
2022-08-26T05:56:52.309Z,6.17
2022-08-26T05:59:24.389Z,6.50
2022-08-26T06:01:53.010Z,5.47
2022-08-26T06:04:20.786Z,5.37
2022-08-26T06:06:48.635Z,6.27
2022-08-26T06:09:17.481Z,4.83
2022-08-26T06:11:46.059Z,6.23
2022-08-26T06:14:15.047Z,4.97
2022-08-26T06:16:45.096Z,4.43
2022-08-26T06:19:15.085Z,4.87
2022-08-26T06:21:45.983Z,4.63
2022-08-26T06:24:32.878Z,5.57
2022-08-26T06:27:03.175Z,4.57
2022-08-26T06:29:34.936Z,4.37
2022-08-26T06:32:04.835Z,5.27
2022-08-26T06:34:32.710Z,7.40
2022-08-26T06:37:03.501Z,4.30
2022-08-26T06:39:31.891Z,5.63
2022-08-26T06:41:59.990Z,5.43
2022-08-26T06:44:28.121Z,4.77
2022-08-26T06:46:57.523Z,5.23
2022-08-26T06:49:26.940Z,5.17
2022-08-26T06:51:56.452Z,8.27
2022-08-26T06:54:24.095Z,4.97
2022-08-26T06:56:52.620Z,4.87
2022-08-26T06:59:21.017Z,4.50
2022-08-26T07:01:48.796Z,4.07
2022-08-26T07:04:21.916Z,4.83
2022-08-26T07:06:54.774Z,5.30
2022-08-26T07:09:23.647Z,6.07
2022-08-26T07:11:52.908Z,5.13
2022-08-26T07:14:21.415Z,5.53
2022-08-26T07:16:50.693Z,5.00
2022-08-26T07:19:30.281Z,6.27
2022-08-26T07:21:59.667Z,5.07
2022-08-26T07:24:29.086Z,6.83
2022-08-26T07:27:00.704Z,5.00
2022-08-26T07:29:29.221Z,4.50
2022-08-26T07:31:56.965Z,4.47
2022-08-26T07:34:27.242Z,6.20
2022-08-26T07:36:55.493Z,6.03
2022-08-26T07:39:24.442Z,4.23
2022-08-26T07:41:52.747Z,6.70
2022-08-26T07:44:21.007Z,7.83
2022-08-26T07:46:53.058Z,5.23
2022-08-26T07:49:22.219Z,5.47
2022-08-26T07:51:52.262Z,6.70
2022-08-26T07:54:20.318Z,5.27
2022-08-26T07:56:54.849Z,5.50
2022-08-26T07:59:24.871Z,7.40
2022-08-26T08:01:53.379Z,4.13
2022-08-26T08:04:26.065Z,5.27
2022-08-26T08:06:56.614Z,5.23
2022-08-26T08:09:24.893Z,5.27
2022-08-26T08:11:53.861Z,7.03
2022-08-26T08:14:22.169Z,5.68
2022-08-26T08:16:53.592Z,4.70
2022-08-26T08:19:23.067Z,5.43
2022-08-26T08:21:51.654Z,5.63
2022-08-26T08:24:21.933Z,3.97
2022-08-26T08:26:50.407Z,4.57
2022-08-26T08:29:18.485Z,4.82
2022-08-26T08:31:58.273Z,5.38
2022-08-26T08:34:27.894Z,5.05
2022-08-26T08:36:55.762Z,6.30
2022-08-26T08:39:26.256Z,7.00
2022-08-26T08:42:09.140Z,7.30
2022-08-26T08:44:41.493Z,5.72
2022-08-26T08:47:18.610Z,5.75
2022-08-26T08:49:48.572Z,5.75
2022-08-26T08:52:29.202Z,7.95
2022-08-26T08:54:58.282Z,6.25
2022-08-26T08:57:37.670Z,5.35
2022-08-26T09:00:12.347Z,6.28
2022-08-26T09:02:47.972Z,4.45
2022-08-26T09:05:22.741Z,5.03
2022-08-26T09:07:56.550Z,4.85
2022-08-26T09:10:35.120Z,4.85
2022-08-26T09:13:05.793Z,5.45
2022-08-26T09:15:43.651Z,7.00
2022-08-26T09:18:25.245Z,5.43
2022-08-26T09:20:57.656Z,6.25
2022-08-26T09:23:26.772Z,5.70
2022-08-26T09:26:01.401Z,4.90
2022-08-26T09:28:31.820Z,4.90
2022-08-26T09:31:07.917Z,6.65
2022-08-26T09:33:39.599Z,6.03
2022-08-26T09:36:16.915Z,6.72
2022-08-26T09:38:46.454Z,5.40
2022-08-26T09:41:27.867Z,7.50
2022-08-26T09:44:22.938Z,6.43
2022-08-26T09:46:56.539Z,7.15
2022-08-26T09:49:35.611Z,6.13
2022-08-26T09:52:07.171Z,8.40
2022-08-26T09:54:36.379Z,9.18
2022-08-26T09:57:26.418Z,9.13
2022-08-26T09:59:54.221Z,8.63
2022-08-26T10:02:37.663Z,6.68
2022-08-26T10:05:10.584Z,5.70
2022-08-26T10:07:44.179Z,8.63
2022-08-26T10:10:17.846Z,7.38
2022-08-26T10:12:59.858Z,6.45
2022-08-26T10:15:29.098Z,7.55
2022-08-26T10:18:05.748Z,8.90
2022-08-26T10:20:37.224Z,7.05
2022-08-26T10:23:12.189Z,7.63
2022-08-26T10:25:49.631Z,6.70
2022-08-26T10:28:27.950Z,6.95
2022-08-26T10:31:02.130Z,6.63
2022-08-26T10:33:30.362Z,8.18
2022-08-26T10:36:00.422Z,6.25
2022-08-26T10:38:34.269Z,7.20
2022-08-26T10:41:10.471Z,5.80
2022-08-26T10:43:43.954Z,5.40
2022-08-26T10:46:17.159Z,6.57
2022-08-26T10:48:50.294Z,5.50
2022-08-26T10:51:24.857Z,6.72
2022-08-26T10:53:57.837Z,6.10
2022-08-26T10:56:44.413Z,5.03
2022-08-26T10:59:22.620Z,4.63
2022-08-26T11:01:58.823Z,5.78
2022-08-26T11:04:45.625Z,6.57
2022-08-26T11:07:36.202Z,5.93
2022-08-26T11:10:08.025Z,4.90
2022-08-26T11:12:56.739Z,5.50
2022-08-26T11:16:10.393Z,7.03
2022-08-26T11:18:45.437Z,5.57
2022-08-26T11:21:50.799Z,5.25
2022-08-26T11:25:11.504Z,6.25
2022-08-26T11:27:55.304Z,6.18
2022-08-26T11:30:57.760Z,5.90
2022-08-26T11:33:59.414Z,4.90
2022-08-26T11:36:40.571Z,5.30
2022-08-26T11:39:19.995Z,6.07
2022-08-26T11:41:52.835Z,3.58
2022-08-26T11:44:23.259Z,7.50
2022-08-26T11:46:57.571Z,5.28
2022-08-26T11:49:28.240Z,5.03
2022-08-26T11:52:11.240Z,6.15
2022-08-26T11:54:39.918Z,4.35
2022-08-26T11:57:13.431Z,5.90
2022-08-26T11:59:43.714Z,4.75
2022-08-26T12:02:18.186Z,5.85
2022-08-26T12:04:51.790Z,5.43
2022-08-26T12:07:24.877Z,5.57
2022-08-26T12:09:57.216Z,4.22
2022-08-26T12:12:34.800Z,4.35
2022-08-26T12:15:13.763Z,5.45
2022-08-26T12:17:42.871Z,5.40
2022-08-26T12:20:48.756Z,4.85
2022-08-26T12:23:25.092Z,5.53
2022-08-26T12:26:05.073Z,5.38
2022-08-26T12:28:33.117Z,5.20
2022-08-26T12:31:03.501Z,4.25
2022-08-26T12:33:33.898Z,4.22
2022-08-26T12:36:04.873Z,4.50
2022-08-26T12:38:34.992Z,3.38
2022-08-26T12:41:03.419Z,3.78
2022-08-26T12:43:41.183Z,3.55
2022-08-26T12:46:11.561Z,2.72
2022-08-26T12:48:42.628Z,3.75
2022-08-26T12:51:28.229Z,3.20
2022-08-26T12:53:56.447Z,3.63
2022-08-26T12:56:32.391Z,2.60
2022-08-26T12:59:12.181Z,2.97
2022-08-26T13:01:44.573Z,2.97
2022-08-26T13:04:34.743Z,3.42
2022-08-26T13:07:22.903Z,3.92
2022-08-26T13:09:52.302Z,2.95
2022-08-26T13:12:32.251Z,3.55
2022-08-26T13:15:01.595Z,3.25
2022-08-26T13:17:30.571Z,2.75
2022-08-26T13:20:03.573Z,3.47
2022-08-26T13:22:33.653Z,3.05
2022-08-26T13:25:01.361Z,2.47
2022-08-26T13:27:29.106Z,2.55
2022-08-26T13:29:57.793Z,3.38
2022-08-26T13:32:27.265Z,3.25
2022-08-26T13:34:56.352Z,2.58
2022-08-26T13:37:29.330Z,2.50
2022-08-26T13:40:06.206Z,4.18
2022-08-26T13:42:34.501Z,2.30
2022-08-26T13:45:02.490Z,4.07
2022-08-26T13:47:30.680Z,2.97
2022-08-26T13:49:58.658Z,2.72
2022-08-26T13:52:30.619Z,2.08
2022-08-26T13:55:00.083Z,2.72
2022-08-26T13:57:30.615Z,2.90
2022-08-26T13:59:59.208Z,3.03
2022-08-26T14:02:29.071Z,2.72
2022-08-26T14:04:56.744Z,2.85
2022-08-26T14:07:25.023Z,2.83
2022-08-26T14:09:52.742Z,3.33
2022-08-26T14:12:20.607Z,3.35
2022-08-26T14:14:49.681Z,3.55
2022-08-26T14:17:22.559Z,2.17
2022-08-26T14:19:51.762Z,3.28
2022-08-26T14:22:22.278Z,3.03
2022-08-26T14:24:50.918Z,4.20
2022-08-26T14:27:18.617Z,3.25
2022-08-26T14:29:46.327Z,4.80
2022-08-26T14:32:21.450Z,3.55
2022-08-26T14:34:50.775Z,4.13
2022-08-26T14:37:19.167Z,4.30
2022-08-26T14:39:46.952Z,3.83
2022-08-26T14:42:16.935Z,3.83
2022-08-26T14:44:46.968Z,3.85
2022-08-26T14:47:16.322Z,2.85
2022-08-26T14:49:44.019Z,3.70
2022-08-26T14:52:11.681Z,6.25
2022-08-26T14:54:38.355Z,3.85
2022-08-26T14:57:08.703Z,4.05
2022-08-26T14:59:38.983Z,3.10
2022-08-26T15:02:08.359Z,3.03
2022-08-26T15:04:37.531Z,3.85
2022-08-26T15:07:06.099Z,3.42
2022-08-26T15:09:35.614Z,3.35
2022-08-26T15:12:04.437Z,3.47
2022-08-26T15:14:33.106Z,3.03
2022-08-26T15:17:01.147Z,3.90
2022-08-26T15:19:29.211Z,4.45
2022-08-26T15:21:58.276Z,3.85
2022-08-26T15:24:28.806Z,3.40
2022-08-26T15:26:56.739Z,4.05
2022-08-26T15:29:24.757Z,3.70
2022-08-26T15:31:55.240Z,4.88
2022-08-26T15:34:25.195Z,3.53
2022-08-26T15:36:53.230Z,5.05
2022-08-26T15:39:22.286Z,3.58
2022-08-26T15:41:50.738Z,4.82
2022-08-26T15:44:19.147Z,2.35
2022-08-26T15:46:49.367Z,3.08
2022-08-26T15:49:18.707Z,3.00
2022-08-26T15:51:49.574Z,3.40
2022-08-26T15:54:19.570Z,3.17
2022-08-26T15:56:52.433Z,4.13
2022-08-26T15:59:22.294Z,4.35
2022-08-26T16:01:50.947Z,5.03
2022-08-26T16:04:18.993Z,4.30
2022-08-26T16:06:50.581Z,4.68
2022-08-26T16:09:19.422Z,4.35
2022-08-26T16:11:47.563Z,4.60
2022-08-26T16:14:16.990Z,5.22
2022-08-26T16:16:45.370Z,4.60
2022-08-26T16:19:13.027Z,6.03
2022-08-26T16:21:42.537Z,4.47
2022-08-26T16:24:10.693Z,6.45
2022-08-26T16:26:41.254Z,3.50
2022-08-26T16:29:11.376Z,5.18
2022-08-26T16:31:40.905Z,4.75
2022-08-26T16:34:09.292Z,4.75
2022-08-26T16:36:39.094Z,4.68
2022-08-26T16:39:08.283Z,5.00
2022-08-26T16:41:36.534Z,5.25
2022-08-26T16:44:05.645Z,5.25
2022-08-26T16:46:34.960Z,4.22
2022-08-26T16:49:04.671Z,5.68
2022-08-26T16:51:37.811Z,3.92
2022-08-26T16:54:07.046Z,6.03
2022-08-26T16:56:36.302Z,4.82
2022-08-26T16:59:05.149Z,4.90
2022-08-26T17:01:33.543Z,6.22
2022-08-26T17:04:01.265Z,5.78
2022-08-26T17:06:31.209Z,5.68
2022-08-26T17:08:58.837Z,4.75
2022-08-26T17:11:26.854Z,5.07
2022-08-26T17:13:54.495Z,4.97
2022-08-26T17:16:26.599Z,6.05
2022-08-26T17:18:56.163Z,6.10
2022-08-26T17:21:24.070Z,6.05
2022-08-26T17:23:53.509Z,5.75
2022-08-26T17:26:22.009Z,4.45
2022-08-26T17:28:50.047Z,6.32
2022-08-26T17:31:18.559Z,4.28
2022-08-26T17:33:48.982Z,4.25
2022-08-26T17:36:22.565Z,4.60
2022-08-26T17:38:50.384Z,5.65
2022-08-26T17:41:23.549Z,4.15
2022-08-26T17:43:51.203Z,5.07
2022-08-26T17:46:19.237Z,5.10
2022-08-26T17:48:47.793Z,5.63
2022-08-26T17:51:19.129Z,4.38
2022-08-26T17:53:47.890Z,3.85
2022-08-26T17:56:18.734Z,5.50
2022-08-26T17:58:51.129Z,4.72
2022-08-26T18:01:20.071Z,4.78
2022-08-26T18:03:47.872Z,3.17
2022-08-26T18:06:16.409Z,3.42
2022-08-26T18:08:44.850Z,2.35
2022-08-26T18:11:15.192Z,2.40
2022-08-26T18:13:47.322Z,3.97
2022-08-26T18:16:18.648Z,2.05
2022-08-26T18:18:47.616Z,2.58
2022-08-26T18:21:16.758Z,2.60
2022-08-26T18:23:45.536Z,3.75
2022-08-26T18:26:18.175Z,3.17
2022-08-26T18:28:46.195Z,3.70
2022-08-26T18:31:15.235Z,5.05
2022-08-26T18:33:44.779Z,4.57
2022-08-26T18:36:18.432Z,4.30
2022-08-26T18:38:46.828Z,3.88
2022-08-26T18:41:14.646Z,4.23
2022-08-26T18:43:42.427Z,5.00
2022-08-26T18:46:11.728Z,3.30
2022-08-26T18:48:41.179Z,5.73
2022-08-26T18:51:17.052Z,2.57
2022-08-26T18:53:44.778Z,2.90
2022-08-26T18:56:14.318Z,3.57
2022-08-26T18:58:44.416Z,4.47
2022-08-26T19:01:13.106Z,3.70
2022-08-26T19:03:40.970Z,2.93
2022-08-26T19:06:14.452Z,4.17
2022-08-26T19:08:44.603Z,2.80
2022-08-26T19:11:13.903Z,3.27
2022-08-26T19:13:42.071Z,3.00
2022-08-26T19:16:16.385Z,2.60
2022-08-26T19:18:44.104Z,3.67
2022-08-26T19:21:14.383Z,5.37
2022-08-26T19:23:42.383Z,3.80
2022-08-26T19:26:10.987Z,4.00
2022-08-26T19:28:40.813Z,3.77
2022-08-26T19:31:10.470Z,3.93
2022-08-26T19:33:39.453Z,3.07
2022-08-26T19:36:10.443Z,3.73
2022-08-26T19:38:43.218Z,3.27
2022-08-26T19:41:13.207Z,2.90
2022-08-26T19:43:40.899Z,3.93
2022-08-26T19:46:12.688Z,5.00
2022-08-26T19:48:44.247Z,3.90
2022-08-26T19:51:13.924Z,3.30
2022-08-26T19:53:43.658Z,3.70
2022-08-26T19:56:12.421Z,4.47
2022-08-26T19:58:40.592Z,4.00
2022-08-26T20:01:09.245Z,3.03
2022-08-26T20:03:37.846Z,3.57
2022-08-26T20:06:06.701Z,4.00
2022-08-26T20:08:35.718Z,3.77
2022-08-26T20:11:07.282Z,4.27
2022-08-26T20:13:34.940Z,3.83
2022-08-26T20:16:02.805Z,4.67
2022-08-26T20:18:48.350Z,3.07
2022-08-26T20:21:29.135Z,3.63
2022-08-26T20:23:59.136Z,4.67
2022-08-26T20:26:30.515Z,4.20
2022-08-26T20:28:59.323Z,4.53
2022-08-26T20:31:27.976Z,4.37
2022-08-26T20:33:56.289Z,4.63
2022-08-26T20:36:26.757Z,3.40
2022-08-26T20:38:55.281Z,3.87
2022-08-26T20:41:25.853Z,4.10
2022-08-26T20:43:55.656Z,4.30
2022-08-26T20:46:25.253Z,4.63
2022-08-26T20:48:53.330Z,3.33
2022-08-26T20:51:23.229Z,3.53
2022-08-26T20:53:51.723Z,2.67
2022-08-26T20:56:23.736Z,2.83
2022-08-26T20:58:53.155Z,3.07
2022-08-26T21:01:26.864Z,2.57
2022-08-26T21:03:56.841Z,2.90
2022-08-26T21:06:25.863Z,3.90
2022-08-26T21:08:54.519Z,4.07
2022-08-26T21:11:22.668Z,2.50
2022-08-26T21:14:06.956Z,2.67
2022-08-26T21:16:42.029Z,2.83
2022-08-26T21:19:12.566Z,4.27
2022-08-26T21:21:41.006Z,3.23
2022-08-26T21:24:08.965Z,2.70
2022-08-26T21:26:37.851Z,2.87
2022-08-26T21:29:06.673Z,2.97
2022-08-26T21:31:35.327Z,4.10
2022-08-26T21:34:04.716Z,3.63
2022-08-26T21:36:33.290Z,2.83
2022-08-26T21:39:01.543Z,3.13
2022-08-26T21:41:29.679Z,2.87
2022-08-26T21:44:00.335Z,2.57
2022-08-26T21:46:30.418Z,2.90
2022-08-26T21:49:01.082Z,3.63
2022-08-26T21:51:37.600Z,3.10
2022-08-26T21:54:10.805Z,4.33
2022-08-26T21:56:41.115Z,4.10
2022-08-26T21:59:10.086Z,3.13
2022-08-26T22:01:38.451Z,2.53
2022-08-26T22:04:08.505Z,2.60
2022-08-26T22:06:43.417Z,2.40
2022-08-26T22:09:13.384Z,2.83
2022-08-26T22:11:41.552Z,2.80
2022-08-26T22:14:09.915Z,2.63
2022-08-26T22:16:37.646Z,3.73
2022-08-26T22:19:06.170Z,2.43
2022-08-26T22:21:35.660Z,3.23
2022-08-26T22:24:07.365Z,2.60
2022-08-26T22:26:36.204Z,2.00
2022-08-26T22:29:05.129Z,3.67
2022-08-26T22:31:38.048Z,2.97
2022-08-26T22:34:08.102Z,3.47
2022-08-26T22:36:39.758Z,4.97
2022-08-26T22:39:14.683Z,4.97
2022-08-26T22:41:42.931Z,2.83
2022-08-26T22:44:11.589Z,2.63
2022-08-26T22:46:40.065Z,3.03
2022-08-26T22:49:09.496Z,3.13
2022-08-26T22:51:37.789Z,2.97
2022-08-26T22:54:05.811Z,3.27
2022-08-26T22:56:35.298Z,3.93
2022-08-26T22:59:03.149Z,3.93
2022-08-26T23:01:31.403Z,4.63
2022-08-26T23:03:59.121Z,3.70
2022-08-26T23:06:27.583Z,4.00
2022-08-26T23:08:55.218Z,3.50
2022-08-26T23:11:23.191Z,3.60
2022-08-26T23:13:52.605Z,4.27
2022-08-26T23:16:21.134Z,5.80
2022-08-26T23:18:48.920Z,4.60
2022-08-26T23:21:16.724Z,4.23
2022-08-26T23:23:45.084Z,4.93
2022-08-26T23:26:17.385Z,5.40
2022-08-26T23:28:45.388Z,5.53
2022-08-26T23:31:15.678Z,4.77
2022-08-26T23:34:01.067Z,4.57
2022-08-26T23:36:30.803Z,3.30
2022-08-26T23:38:58.638Z,4.27
2022-08-26T23:41:27.539Z,5.30
2022-08-26T23:43:55.323Z,3.37
2022-08-26T23:46:25.075Z,3.90
2022-08-26T23:48:52.741Z,4.50
2022-08-26T23:51:38.403Z,3.87
2022-08-26T23:54:06.674Z,4.77
2022-08-26T23:56:36.242Z,4.00
2022-08-26T23:59:03.979Z,4.70
